x

9418767 - North Spit, Ca (hbyc1) Weather Station

1:36pm - Tue 25th Nov 2014 All times are PST. -8 hours from GMT.

  • Wind
    5mph, 6mph gusts
  • Sea Temp 58°f
  • Air Temp 59°f
  • Sea Pressure 1029.8mb
  • 9418767 - North Spit, Ca
  • 9418767 - North Spit, Ca

More Historic Weather Station data

Upgrade to MSW Pro to gain access to the past 30 days of data for over 8000 Wavebouys and Weather Stations around the globe.

Join Pro

Comparision Forecast

View Surf forecast
   
Tue 11/25 1:36pm 5 6 mph 1029.8mb 58f 59f
1:30pm 5 6 mph 1029.9mb 57f 59f
1:24pm 5 6 mph 1029.9mb 57f 58f
1:18pm 5 6 mph 1029.9mb 57f 58f
1:12pm 5 6 mph 1029.9mb 57f 58f
1:06pm 5 6 mph 1029.9mb 57f 58f
1:00pm 5
mph
1030mb 57f 58f
12:36pm 3
mph
1030.1mb 57f 57f
12:30pm 3
mph
1030.2mb 57f 56f
12:24pm 3
mph
1030.2mb 57f 55f
12:18pm 2 3 mph 1030.3mb 57f 56f
12:12pm 3
mph
1030.5mb 57f 55f
12:06pm 3
mph
1030.6mb 57f 56f
12:00pm 3 5 mph 1030.7mb 57f 56f
11:36am 1 2 mph 1031mb 57f 59f
11:30am  -  1 mph 1031.1mb 57f 58f
11:24am  -  1 mph 1031.1mb 57f 58f
11:18am  -  2 mph 1031.2mb 57f 58f
11:12am 1 2 mph 1031.2mb 57f 56f
11:06am 2 3 mph 1031.3mb 57f 56f
11:00am 3
mph
1031.3mb 57f 56f
10:36am 2 3 mph 1031.5mb 57f 58f
10:30am 2 3 mph 1031.4mb 57f 57f
10:24am 2 3 mph 1031.5mb 57f 57f
10:18am 2
mph
1031.5mb 57f 56f
10:12am 2 3 mph 1031.4mb 57f 56f
10:06am 2 3 mph 1031.4mb 57f 55f
10:00am 2
mph
1031.5mb 57f 55f
9:36am 3 5 mph 1031.6mb 57f 54f
9:30am 2 3 mph 1031.5mb 57f 54f
9:24am 3 5 mph 1031.4mb 57f 54f
9:18am 3 5 mph 1031.4mb 57f 53f
9:12am 3 5 mph 1031.4mb 57f 53f
9:06am 3 6 mph 1031.4mb 57f 53f
9:00am 3 5 mph 1031.4mb 57f 53f
8:36am 5 6 mph 1031.5mb 57f 51f
8:30am 5 6 mph 1031.5mb 57f 51f
8:24am 6 7 mph 1031.5mb 57f 51f
8:18am 7 9 mph 1031.5mb 57f 50f
8:12am 7 9 mph 1031.4mb 57f 50f
8:06am 7 8 mph 1031.3mb 57f 50f
8:00am 8 9 mph 1031.3mb 57f 50f
7:36am 6 7 mph 1031.4mb 57f 50f
7:30am 7 9 mph 1031.3mb 57f 49f
7:24am 8 9 mph 1031.3mb 57f 49f
7:18am 8 10 mph 1031.2mb 57f 49f
7:12am 8 10 mph 1031.1mb 57f 49f
7:06am 8 9 mph 1031.1mb 57f 49f
7:00am 6 7 mph 1031.2mb 57f 49f
6:36am 3
mph
1031mb 57f 51f
6:30am 2
mph
1030.9mb 57f 52f
6:24am 2
mph
1030.8mb 57f 52f
6:18am 2
mph
1030.7mb 57f 52f
6:12am  -  1 mph 1030.7mb 57f 53f
6:06am  -  2 mph 1030.7mb 57f 52f
6:00am 2 3 mph 1030.6mb 57f 52f
5:36am 5 6 mph 1030.6mb 57f 51f
5:30am 6 7 mph 1030.5mb 57f 51f
5:24am 6 9 mph 1030.6mb 57f 52f
5:18am 7 9 mph 1030.6mb 57f 51f
5:12am 7 8 mph 1030.7mb 57f 50f
5:06am 7 9 mph 1030.8mb 57f 51f
5:00am 8 9 mph 1030.8mb 57f 51f
4:36am 7 8 mph 1030.9mb 57f 51f
4:30am 7 8 mph 1031mb 57f 51f
4:24am 7 8 mph 1031mb 57f 51f
4:18am 6 8 mph 1031mb 57f 51f
4:12am 6 8 mph 1030.9mb 57f 51f
4:06am 7 8 mph 1030.9mb 57f 51f
4:00am 6 7 mph 1031mb 57f 51f
3:36am 7 8 mph 1031.1mb 57f 51f
3:30am 7 9 mph 1031.1mb 57f 50f
3:24am 7 8 mph 1031.2mb 57f 50f
3:18am 6 7 mph 1031.2mb 57f 51f
3:12am 6 8 mph 1031.3mb 57f 51f
3:06am 7 8 mph 1031.3mb 57f 51f
3:00am 6 8 mph 1031.3mb 57f 51f
2:36am 5 6 mph 1031.5mb 57f 50f
2:30am 6 7 mph 1031.4mb 57f 50f
2:24am 6 7 mph 1031.4mb 57f 50f
2:18am 6 8 mph 1031.5mb 57f 50f
2:12am 6 7 mph 1031.5mb 57f 50f
2:06am 6 7 mph 1031.6mb 57f 50f
2:00am 6 7 mph 1031.5mb 57f 49f
1:36am 6 7 mph 1031.4mb 57f 50f
1:30am 5
mph
1031.4mb 57f 51f
1:24am 5 6 mph 1031.3mb 57f 51f
1:18am 5 6 mph 1031.3mb 57f 51f
1:12am 3 5 mph 1031.3mb 57f 51f
1:06am 3 5 mph 1031.3mb 57f 52f
1:00am 3 5 mph - - 51f
12:36am 6 7 mph 1031.3mb 57f 51f
12:30am 6 7 mph 1031.2mb 57f 51f
12:24am 6 7 mph 1031.1mb 57f 51f
12:18am 5 6 mph 1031.2mb 57f 51f
12:12am 5 6 mph 1031.1mb 57f 51f
12:06am 5 6 mph 1031.2mb 57f 51f
12:00am 5 6 mph 1031.2mb 57f 51f
Mon 11/24 11:36pm 5 7 mph - - 51f
11:30pm 6 8 mph 1031.2mb 57f 51f
11:24pm 5 7 mph 1031.2mb 57f 51f
11:18pm 5 6 mph 1031.2mb 57f 51f
11:12pm 5 7 mph 1031.2mb 57f 51f
11:06pm 5 6 mph 1031.2mb 57f 51f
11:00pm 5 6 mph 1031.1mb 57f 51f
10:36pm 3 5 mph 1031mb 57f 52f
10:30pm 3 5 mph 1030.9mb 57f 53f
10:24pm 2 6 mph 1030.9mb 56f 53f
10:18pm 6 7 mph 1030.9mb 57f 52f
10:12pm 7
mph
1030.9mb 57f 52f
10:06pm 6
mph
1030.9mb 56f 53f
10:00pm 5 6 mph 1031mb 56f 53f
9:36pm 5 6 mph 1030.9mb 56f 53f
9:30pm 5 6 mph 1030.9mb 56f 52f
9:24pm 5 7 mph 1030.8mb 56f 52f
9:18pm 6 8 mph 1030.8mb 56f 52f
9:12pm 6 8 mph 1030.8mb 56f 52f
9:06pm 7 9 mph 1030.8mb 56f 52f
9:00pm 6 7 mph 1030.8mb 56f 52f
8:36pm 7 9 mph 1030.7mb 56f 52f
8:30pm 7 10 mph 1030.8mb 56f 52f
8:24pm 7 9 mph 1030.8mb 56f 52f
8:18pm 8 9 mph 1030.8mb 56f 52f
8:12pm 5 6 mph 1030.8mb 56f 53f
8:06pm 5 6 mph 1030.7mb 56f 52f
8:00pm 6 8 mph 1030.7mb 56f 53f
7:36pm 6 7 mph 1030.5mb 57f 53f
7:30pm 5 7 mph 1030.4mb 57f 53f
7:24pm 6 7 mph 1030.3mb 57f 53f
7:18pm 5 6 mph 1030.3mb 57f 54f
7:12pm 5 6 mph 1030.3mb 57f 54f
7:06pm 5 6 mph 1030.1mb 58f 54f
7:00pm 5 6 mph 1030.1mb 58f 54f
6:36pm 5 7 mph 1029.8mb 58f 54f
6:30pm 6 7 mph 1029.7mb 58f 54f
6:24pm 6 7 mph 1029.6mb 58f 53f
6:18pm 6 7 mph 1029.6mb 58f 53f
6:12pm 5 6 mph 1029.5mb 58f 54f
6:06pm 5 6 mph 1029.5mb 58f 54f
6:00pm 5 7 mph 1029.4mb 58f 54f
5:36pm 5 7 mph 1029.4mb 58f 57f
5:30pm 7
mph
1029.5mb 58f 57f
5:24pm 8 9 mph 1029.5mb 58f 57f
5:18pm 9 10 mph 1029.5mb 58f 58f
5:12pm 8 9 mph 1029.4mb 58f 58f
5:06pm 7 8 mph 1029.3mb 58f 58f
5:00pm 6 7 mph 1029.2mb 58f 58f
4:36pm 2
mph
1029mb 58f 58f
4:30pm  -  2 mph 1028.9mb 58f 57f
4:24pm 1 2 mph 1028.9mb 58f 57f
4:18pm 1 2 mph 1028.9mb 58f 57f
4:12pm 2 3 mph 1029mb 58f 57f
4:06pm 2 3 mph 1029mb 58f 58f
4:00pm 3
mph
1029mb 58f 58f
3:36pm  -  1 mph - - 60f
3:30pm  -  1 mph 1029.1mb 58f 58f
3:24pm  -  2 mph 1029.2mb 58f 57f
3:18pm 2
mph
1029.3mb 58f 57f
3:12pm 1 2 mph 1029.2mb 58f 58f
3:06pm  -  2 mph 1029.2mb 58f 57f
3:00pm 2
mph
- - 57f
2:36pm 5 6 mph 1029.2mb 58f 57f
2:30pm 6
mph
1029.1mb 58f 58f
2:24pm 3
mph
1029.1mb 58f 57f
2:18pm 2
mph
1029.1mb 58f 56f
2:12pm 2 3 mph 1029.1mb 58f 57f
2:06pm 3
mph
1029.1mb 58f 56f
2:00pm 2 3 mph 1029.2mb 58f 56f
1:54pm 3 5 mph 1029.2mb 58f 56f
1:48pm 6
mph
1029.2mb 58f 57f
1:36pm 7
mph
1029.3mb 58f 57f
1:30pm 6 7 mph 1029.3mb 58f 57f
1:24pm 7
mph
1029.3mb 58f 57f
1:18pm 6
mph
1029.2mb 58f 57f
1:12pm 5
mph
1029.1mb 58f 56f
1:06pm 5
mph
1029.2mb 58f 56f
1:00pm 3 5 mph 1029.2mb 58f 56f
12:54pm 3 5 mph 1029.3mb 58f 56f
12:48pm 5
mph
1029.2mb 58f 56f
12:36pm 5 6 mph 1029.4mb 58f 57f
12:30pm 3 5 mph 1029.5mb 58f 56f
12:24pm 3 5 mph 1029.5mb 58f 57f
12:18pm 3
mph
1029.6mb 58f 56f
12:12pm 3
mph
1029.7mb 58f 56f
12:06pm 3
mph
1029.7mb 58f 56f
12:00pm 2
mph
1029.8mb 58f 57f
11:54am 2 3 mph 1029.9mb 58f 58f
11:48am 3 5 mph 1030mb 58f 58f
11:36am  -  2 mph 1030.1mb 58f 57f
11:30am 2 3 mph 1030.2mb 57f 56f
11:24am 1 2 mph 1030.2mb 57f 56f
11:18am 2 3 mph 1030.2mb 57f 56f
11:12am 3 5 mph 1030.2mb 57f 56f
11:06am 3
mph
1030.1mb 57f 56f
11:00am 3 5 mph 1030.1mb 57f 55f
10:54am 3
mph
1030.1mb 57f 56f
10:48am 2 3 mph 1030.2mb 57f 55f
10:36am 2 5 mph 1030.3mb 57f 55f
10:30am 5
mph
1030.2mb 57f 54f
10:24am 5 6 mph 1030.1mb 57f 53f
10:18am 3 5 mph 1029.9mb 57f 53f
10:12am 5 6 mph 1029.8mb 57f 53f
10:06am 5 6 mph 1029.8mb 57f 53f
10:00am 5 6 mph 1029.8mb 57f 53f
9:54am 5 6 mph 1029.8mb 57f 53f
9:48am 5 6 mph 1029.8mb 57f 52f
9:36am 2 5 mph 1029.8mb 57f 54f
9:30am 6 8 mph 1029.6mb 57f 53f
9:24am 8 9 mph 1029.5mb 57f 53f
9:18am 7 9 mph 1029.5mb 57f 52f
9:12am 6 7 mph 1029.5mb 57f 52f
9:06am 5 7 mph 1029.4mb 57f 52f
9:00am 5 8 mph 1029.4mb 57f 52f
8:54am 6 8 mph 1029.2mb 57f 52f
8:48am 7 10 mph 1029.2mb 57f 52f
8:36am 5 6 mph 1029.2mb 57f 51f
8:30am 3 5 mph 1029.2mb 57f 51f
8:24am 3 8 mph 1029mb 57f 51f
8:18am 6 8 mph 1029mb 57f 50f
8:12am 7 9 mph 1029mb 57f 49f
8:06am 6 8 mph 1028.9mb 57f 49f
8:00am 6 8 mph 1028.8mb 57f 48f
7:54am 8 10 mph 1028.7mb 57f 48f
7:48am 8 10 mph 1028.9mb 57f 48f
7:36am 7 10 mph 1029.1mb 57f 48f
7:30am 7 10 mph 1029.2mb 57f 48f
7:24am 7 9 mph 1029.2mb 57f 49f
7:18am 7 8 mph 1029.2mb 57f 48f
7:12am 6 7 mph 1029.1mb 57f 49f
7:06am 6 8 mph 1029.2mb 57f 49f
7:00am 5 6 mph 1029.3mb 57f 49f
6:54am 3 5 mph 1029.3mb 57f 50f
6:48am 2 6 mph 1029.2mb 57f 51f
6:36am 5 6 mph 1029.1mb 57f 50f
6:30am 3 7 mph 1029mb 57f 51f
6:24am 6 9 mph 1028.9mb 57f 50f
6:18am 8 10 mph 1028.9mb 57f 49f
6:12am 8 10 mph 1028.8mb 57f 49f
6:06am 8 9 mph 1028.8mb 57f 49f
6:00am 9 10 mph 1028.8mb 57f 49f
5:54am 9 10 mph 1028.7mb 57f 49f
5:48am 8 9 mph 1028.7mb 57f 49f
5:36am 5 6 mph 1028.7mb 57f 50f
5:30am 3 5 mph 1028.8mb 57f 49f
5:24am 3 5 mph 1028.8mb 57f 49f
5:18am 3 5 mph 1028.7mb 57f 49f
5:12am 5 6 mph 1028.7mb 57f 48f
5:06am 5 6 mph 1028.7mb 57f 49f
5:00am 3 5 mph 1028.8mb 57f 49f
4:54am 3 6 mph 1028.8mb 57f 49f
4:48am 2 3 mph 1028.7mb 57f 49f
4:36am 2 5 mph 1028.4mb 57f 49f
4:30am 2 5 mph 1028.4mb 57f 49f
4:24am 2 5 mph 1028.4mb 57f 49f
4:18am 3 5 mph 1028.3mb 57f 49f
4:12am 5 6 mph 1028.2mb 57f 49f
4:06am 6 7 mph 1028mb 57f 49f
4:00am 6
mph
1028mb 57f 49f
3:54am 5 6 mph 1028mb 57f 49f
3:48am 3 6 mph 1028.1mb 58f 49f
3:36am 6 7 mph 1028mb 58f 47f
3:30am 6 8 mph 1028.1mb 58f 47f
3:24am 6 8 mph 1028.2mb 58f 47f
3:18am 5 7 mph 1028.4mb 58f 47f
3:12am 6 8 mph 1028.2mb 58f 47f
3:06am 7 8 mph 1028.2mb 58f 46f
3:00am 6 8 mph 1028.4mb 58f 47f
2:54am 6 8 mph 1028.4mb 58f 46f
2:48am 5 7 mph 1028.5mb 58f 46f
2:36am 5 6 mph 1028.6mb 58f 47f
2:30am 5 7 mph 1028.5mb 58f 47f
2:24am 5
mph
1028.4mb 58f 47f
2:18am 3 6 mph 1028.2mb 58f 47f
2:12am 3 7 mph 1028.1mb 58f 48f
2:06am 5 7 mph 1028mb 58f 48f
2:00am 5 7 mph - - 47f
1:54am 6 7 mph 1028mb 58f 47f
1:48am 6 8 mph 1028mb 58f 47f
1:36am 6 10 mph 1028.1mb 58f 47f
1:30am 8 10 mph 1028.1mb 58f 46f
1:24am 8 10 mph 1028.1mb 58f 47f
1:18am 7 9 mph 1028.3mb 58f 46f
1:12am 7 10 mph 1028.4mb 58f 46f
1:06am 8 10 mph 1028.5mb 58f 46f
1:00am 7 9 mph 1028.4mb 58f 46f
12:54am 7 9 mph 1028.5mb 58f 46f
12:48am 7 8 mph 1028.5mb 58f 45f
12:36am 7 9 mph 1028.6mb 58f 46f
12:30am 7 8 mph 1028.6mb 58f 46f
12:24am 6 8 mph 1028.6mb 57f 47f
12:18am 3 6 mph 1028.8mb 57f 49f
12:12am 3 5 mph 1028.7mb 58f 48f
12:06am 3 5 mph 1028.6mb 57f 48f
12:00am 5 7 mph 1028.7mb 58f 47f
Sun 11/23 11:54pm 6 9 mph 1028.6mb 58f 47f
11:48pm 8 10 mph 1028.5mb 57f 46f
11:36pm 8 10 mph 1028.6mb 58f 46f
11:30pm 8 9 mph 1028.6mb 57f 46f
11:24pm 8 10 mph 1028.6mb 57f 46f
11:18pm 8
mph
1028.6mb 57f 47f
11:12pm 6 7 mph 1028.5mb 57f 47f
11:06pm 6 7 mph 1028.4mb 57f 48f
11:00pm 5 6 mph 1028.4mb 57f 48f
10:54pm 5 7 mph 1028.4mb 57f 49f
10:48pm 5 6 mph 1028.4mb 57f 49f
10:36pm 1 3 mph 1028.6mb 57f 49f
10:30pm 2 5 mph 1028.5mb 57f 48f
10:24pm 5 6 mph 1028.4mb 57f 48f
10:18pm 3 5 mph 1028.4mb 57f 49f
10:12pm 2 5 mph 1028.4mb 56f 49f
10:06pm 3 6 mph 1028.4mb 56f 49f
10:00pm 5 6 mph 1028.3mb 56f 48f
9:54pm 3 5 mph 1028.2mb 56f 49f
9:48pm 5 6 mph 1028.2mb 56f 49f
9:36pm 5 6 mph 1028.1mb 56f 49f
9:30pm 5 6 mph 1028.1mb 56f 49f
9:24pm 6 7 mph 1028.2mb 56f 48f
9:18pm 5 6 mph 1028.2mb 56f 48f
9:12pm 5 6 mph 1028.2mb 56f 48f
9:06pm 5 6 mph 1028.2mb 56f 48f
9:00pm 3 5 mph 1028.2mb 56f 48f
8:54pm 3 6 mph 1028.1mb 56f 49f
8:48pm 5 6 mph 1028.2mb 56f 49f
8:36pm 5 6 mph 1028.3mb 56f 49f
8:30pm 6 7 mph 1028.3mb 56f 49f
8:24pm 7
mph
1028.3mb 56f 49f
8:18pm 6 7 mph 1028.4mb 56f 50f
8:12pm 7 8 mph 1028.1mb 56f 50f
8:06pm 7 9 mph 1028mb 56f 50f
8:00pm 8 10 mph 1028.1mb 56f 50f
7:54pm 7 10 mph 1028mb 56f 50f
7:48pm 7 8 mph 1027.8mb 56f 49f
7:36pm 6 8 mph 1028mb 56f 49f
7:30pm 6 7 mph 1028mb 56f 50f
7:24pm 6 7 mph 1028mb 56f 50f
7:18pm 5 7 mph 1028.1mb 56f 50f
7:12pm 6 7 mph 1028.1mb 56f 50f
7:06pm 6 7 mph 1028.1mb 56f 50f
7:00pm 7 8 mph 1028.1mb 56f 51f
6:54pm 7
mph
1028mb 56f 51f
6:48pm 6 7 mph 1028mb 56f 51f
6:36pm 6
mph
1028mb 56f 51f
6:30pm 5 6 mph 1028mb 57f 51f
6:24pm 5 6 mph 1028mb 57f 51f
6:18pm 6
mph
1028mb 57f 51f
6:12pm 6 7 mph 1028mb 57f 52f
6:06pm 5 6 mph 1027.9mb 58f 52f
6:00pm 5 6 mph 1027.9mb 58f 53f
5:54pm 6 7 mph 1028mb 58f 54f
5:48pm 6 7 mph 1028mb 58f 54f
5:36pm 6 7 mph 1028mb 58f 54f
5:30pm 6 7 mph 1028mb 58f 54f
5:24pm 6
mph
1028.1mb 58f 55f
5:18pm 6 7 mph 1028.1mb 58f 54f
5:12pm 7 8 mph 1028mb 58f 54f
5:06pm 7 8 mph 1028mb 58f 54f
5:00pm 6 7 mph 1028mb 58f 54f
4:54pm 7 8 mph 1027.8mb 58f 54f
4:48pm 8 9 mph 1027.8mb 58f 54f
4:36pm 7 8 mph 1027.8mb 58f 54f
4:30pm 7 8 mph 1027.9mb 58f 54f
4:24pm 7 8 mph 1027.9mb 58f 54f
4:18pm 8 9 mph 1027.9mb 58f 54f
4:12pm 7 8 mph 1027.8mb 58f 54f
4:06pm 7 8 mph 1027.8mb 58f 54f
4:00pm 5 6 mph 1027.7mb 58f 54f
3:54pm 5 6 mph 1027.7mb 58f 54f
3:48pm 5 6 mph 1027.7mb 58f 54f
3:36pm 6
mph
1027.5mb 58f 54f
3:30pm 5 6 mph 1027.5mb 58f 54f
3:24pm 5 6 mph 1027.7mb 58f 54f
3:18pm 6 7 mph 1027.8mb 58f 54f
3:12pm 7 8 mph 1027.8mb 58f 54f
3:06pm 7 8 mph 1027.6mb 58f 53f
3:00pm 7 8 mph - - 54f
2:54pm 6 8 mph 1027.7mb 58f 53f
2:48pm 6 8 mph 1027.8mb 58f 54f
2:36pm 6 7 mph 1027.9mb 58f 54f
2:30pm 5 6 mph 1027.8mb 58f 54f
2:24pm 5 6 mph 1027.9mb 58f 54f
2:18pm 5 6 mph 1027.8mb 58f 54f
2:12pm 6
mph
1027.9mb 58f 54f
2:06pm 6 7 mph 1027.7mb 58f 53f
2:00pm 6 8 mph 1027.6mb 58f 53f
1:54pm 7 8 mph 1027.7mb 58f 53f
1:48pm 6 7 mph 1027.7mb 58f 53f
1:36pm 6 7 mph 1027.8mb 58f 53f
1:30pm 6 7 mph 1027.7mb 58f 53f
1:24pm 5 6 mph 1027.7mb 58f 53f
1:18pm 5 6 mph 1027.8mb 58f 53f
1:12pm 5 6 mph 1027.9mb 58f 53f
1:06pm 6 7 mph 1028mb 58f 52f
1:00pm 6 7 mph 1028.1mb 58f 52f
12:54pm 7
mph
1028.2mb 58f 53f
12:48pm 6 7 mph 1028.2mb 58f 53f
12:36pm 6 8 mph 1028.3mb 58f 53f
12:30pm 7 8 mph 1028.3mb 58f 53f
12:24pm 7 8 mph 1028.4mb 58f 53f
12:18pm 7 8 mph 1028.5mb 58f 53f
12:12pm 8 11 mph 1028.5mb 58f 54f
12:06pm 9 13 mph 1028.5mb 58f 53f
12:00pm 8 10 mph 1028.5mb 58f 53f
11:54am 9 10 mph 1028.5mb 58f 53f
11:48am 7 9 mph 1028.3mb 58f 53f
11:36am 8 10 mph 1028.4mb 58f 52f
11:30am 9 10 mph 1028.5mb 58f 52f
11:24am 8 10 mph 1028.4mb 58f 52f
11:18am 9 10 mph 1028.5mb 58f 52f
11:12am 9 10 mph 1028.6mb 58f 52f
11:06am 7 8 mph 1028.5mb 58f 53f
11:00am 8 10 mph 1028.7mb 57f 52f
10:54am 9 11 mph 1028.9mb 57f 53f
10:48am 8 9 mph 1028.8mb 57f 52f
10:36am 7 9 mph 1029mb 57f 51f
10:30am 5 6 mph 1029mb 57f 51f
10:24am 2 3 mph 1028.9mb 57f 51f
10:18am 2 3 mph 1028.9mb 57f 51f
10:12am  -  3 mph 1029.1mb 57f 51f
10:06am 3 5 mph 1029.1mb 57f 50f
10:00am 3 6 mph 1028.9mb 57f 50f
9:54am 6
mph
1029mb 57f 50f
9:48am 5 6 mph 1029mb 57f 50f
9:36am 3 5 mph 1029.4mb 57f 51f
9:30am 2 5 mph 1029.4mb 57f 50f
9:24am 2 5 mph 1029.4mb 57f 50f
9:18am 3 5 mph 1029.3mb 57f 50f
9:12am 2 5 mph 1029.3mb 57f 51f
9:06am 2 3 mph 1029.3mb 57f 50f
9:00am 2 3 mph 1029.2mb 57f 51f
8:54am 1 2 mph 1029.3mb 57f 50f
8:48am 1 2 mph 1029.3mb 57f 50f
8:36am 2 3 mph 1029.2mb 57f 49f
8:30am 3 5 mph 1029.2mb 57f 48f
8:24am 3 5 mph 1029.3mb 57f 48f
8:18am 3 6 mph 1029.2mb 57f 48f
8:12am 5 6 mph 1029.1mb 57f 48f
8:06am 5 7 mph 1029mb 57f 47f
8:00am 5 6 mph 1028.9mb 57f 48f
7:54am 5 7 mph 1028.8mb 57f 48f
7:36am 6 8 mph 1028.9mb 57f 47f
7:30am 6 9 mph 1028.9mb 57f 47f
7:24am 5 6 mph 1028.9mb 57f 47f
7:18am 5 6 mph 1028.9mb 57f 47f
7:12am 5 6 mph 1028.9mb 57f 47f
7:06am 6 7 mph 1028.6mb 57f 47f
7:00am 6 8 mph - - 47f
6:54am 7 8 mph 1028.7mb 57f 47f
6:48am 6 7 mph 1028.8mb 57f 47f
6:36am 6 9 mph 1028.9mb 57f 47f
6:30am 8 10 mph 1028.8mb 57f 47f
6:24am 8 9 mph 1029mb 57f 47f
6:18am 7 8 mph 1029.1mb 57f 47f
6:12am 5 6 mph 1029.2mb 57f 48f
6:06am 5 6 mph 1028.9mb 57f 48f
6:00am 3 5 mph 1028.8mb 57f 48f
5:54am 3 5 mph 1028.9mb 57f 48f
5:48am 3 5 mph 1028.6mb 57f 49f
5:36am 5 6 mph 1028.7mb 57f 49f
5:30am 5 6 mph 1028.7mb 57f 49f
5:24am 6 7 mph 1028.6mb 57f 49f
5:18am 6 7 mph 1028.6mb 57f 49f
5:12am 6 7 mph 1028.7mb 57f 49f
5:06am 5 6 mph 1028.6mb 57f 49f
5:00am 3 5 mph 1028.6mb 57f 50f
4:54am 2 5 mph 1028.6mb 57f 50f
4:48am 2 3 mph 1028.5mb 57f 49f
4:36am 3 6 mph 1028.4mb 57f 49f
4:30am 5 6 mph 1028.4mb 57f 48f
4:24am 5 6 mph 1028.5mb 57f 48f
4:18am 6 7 mph 1028.5mb 57f 47f
4:12am 5 6 mph 1028.5mb 57f 47f
4:06am 5 6 mph 1028.4mb 57f 48f
4:00am 5 7 mph 1028.3mb 57f 48f
3:54am 5 7 mph 1028.2mb 57f 48f
3:48am 5 6 mph 1028.2mb 57f 49f
3:36am 3 5 mph 1028.5mb 57f 48f
3:30am 3 6 mph 1028.2mb 57f 48f
3:24am 5 6 mph 1028.2mb 57f 48f
3:18am 5 6 mph 1028.2mb 57f 48f
3:12am 6 8 mph 1028mb 57f 48f
3:06am 6 8 mph 1028.1mb 57f 48f
3:00am 7 8 mph 1028.2mb 57f 48f
2:54am 5 6 mph 1028.5mb 57f 49f
2:48am 3 6 mph 1028.5mb 57f 50f
2:36am 5 7 mph 1028.4mb 57f 50f
2:30am 6 7 mph 1028.3mb 57f 49f
2:24am 7
mph
1028.2mb 57f 50f
2:18am 5 7 mph 1028.1mb 57f 51f
2:12am 2
mph
1028mb 57f 51f
2:06am  -  2 mph 1028.1mb 57f 51f
2:00am 1 2 mph 1028mb 57f 50f
1:54am 2 3 mph 1027.9mb 57f 50f
1:48am 3 6 mph 1027.8mb 57f 49f
1:36am 6 8 mph 1027.4mb 57f 48f
1:30am 7 8 mph 1027.5mb 57f 48f
1:24am 6 7 mph 1027.6mb 57f 49f
1:18am 6 8 mph 1027.5mb 57f 49f
1:12am 6 7 mph 1027.4mb 58f 49f
1:06am 5 7 mph 1027.3mb 57f 49f
1:00am 3 6 mph 1027.1mb 58f 49f
12:54am 6 7 mph 1027mb 58f 49f
12:48am 5 6 mph 1027.2mb 58f 49f
12:36am 5 6 mph 1027.2mb 57f 49f
12:30am 5 6 mph 1027.2mb 57f 49f
12:24am 5 6 mph 1027.1mb 57f 50f
12:18am 3 5 mph 1027.2mb 57f 50f
12:12am 3 5 mph 1027.2mb 57f 50f
12:06am 5 6 mph 1027.2mb 57f 50f
12:00am 3 5 mph 1027.1mb 57f 50f
Sat 11/22 11:54pm 3 5 mph 1027.1mb 57f 50f
11:48pm 3 5 mph 1027.2mb 58f 50f
11:36pm 3 5 mph 1027.3mb 57f 50f
11:30pm 5 6 mph 1027.2mb 57f 50f
11:24pm 5 7 mph 1027.2mb 57f 49f
11:18pm 6 7 mph 1027.2mb 57f 50f
11:12pm 7 8 mph 1027.1mb 57f 50f
11:06pm 6
mph
1027.2mb 57f 50f
11:00pm 5 6 mph 1027.1mb 57f 51f
10:54pm 5 7 mph 1027.2mb 57f 51f
10:48pm 6 7 mph 1027.1mb 57f 50f
10:36pm 6 8 mph 1027mb 57f 50f
10:30pm 6 8 mph 1026.9mb 57f 50f
10:24pm 6 8 mph 1027mb 57f 50f
10:18pm 6 7 mph 1026.8mb 57f 50f
10:12pm 5 6 mph 1026.8mb 57f 51f
10:06pm 5 6 mph 1026.8mb 57f 51f
10:00pm 3 5 mph 1026.7mb 57f 51f
9:54pm 3 5 mph 1026.7mb 57f 51f
9:48pm 2 3 mph 1026.8mb 57f 52f
9:36pm 2 3 mph 1026.8mb 57f 52f
9:30pm 3 5 mph 1026.8mb 57f 52f
9:24pm 3 5 mph 1026.7mb 57f 52f
9:18pm 3 5 mph 1026.7mb 57f 53f
9:12pm 3 6 mph 1026.7mb 57f 52f
9:06pm 3 6 mph 1026.7mb 57f 52f
9:00pm 5 6 mph 1026.7mb 57f 52f
8:54pm 3 5 mph 1026.7mb 57f 52f
8:48pm 3 6 mph 1026.6mb 57f 52f
8:36pm 5 7 mph 1026.5mb 57f 52f
8:30pm 5 7 mph 1026.4mb 57f 52f
8:24pm 6 7 mph 1026.4mb 57f 53f
8:18pm 5 6 mph 1026.2mb 56f 53f
8:12pm 5 6 mph 1026.1mb 56f 53f
8:06pm 5 6 mph 1026.2mb 56f 53f
8:00pm 3 6 mph 1026.2mb 56f 53f
7:54pm 2 5 mph 1026.1mb 56f 54f
7:48pm  -  1 mph 1026mb 56f 54f
7:36pm 3 6 mph 1025.8mb 56f 54f
7:30pm 3 6 mph 1025.8mb 56f 54f
7:24pm  -  1 mph 1025.8mb 56f 54f
7:18pm  -  2 mph 1025.7mb 56f 54f
7:12pm  -  2 mph 1025.7mb 56f 54f
7:06pm  -  1 mph 1025.5mb 57f 53f
7:00pm  -  2 mph 1025.3mb 57f 53f
6:54pm  -  2 mph 1025.3mb 56f 53f
6:48pm  -  2 mph 1025.2mb 56f 53f
6:36pm 6
mph
1025.2mb 56f 53f
6:30pm 2 5 mph 1025mb 56f 53f
6:24pm 3 6 mph 1024.9mb 57f 53f
6:18pm 6 7 mph 1024.8mb 57f 53f
6:12pm 5 7 mph 1024.8mb 57f 53f
6:06pm 5 7 mph 1024.6mb 57f 55f
6:00pm 1 2 mph 1024.6mb 57f 55f
5:54pm 2 6 mph 1024.5mb 57f 55f
5:48pm 5 7 mph 1024.5mb 57f 56f
5:36pm 5 6 mph 1024.5mb 57f 56f
5:30pm 6
mph
1024.4mb 57f 56f
5:24pm 5 7 mph 1024.3mb 57f 56f
5:18pm 5 6 mph 1024.3mb 57f 56f
5:12pm 5 7 mph 1024.2mb 57f 56f
5:06pm 6
mph
1024.1mb 58f 56f
5:00pm 5 6 mph 1024.1mb 58f 56f
4:54pm 5 6 mph 1024.1mb 58f 56f
4:48pm 6 8 mph 1024mb 58f 56f
4:36pm 8 10 mph 1023.9mb 58f 56f
4:30pm 8 10 mph 1023.9mb 58f 57f
4:24pm 8 9 mph 1023.9mb 58f 56f
4:18pm 9 10 mph 1023.7mb 58f 56f
4:12pm 9 10 mph 1023.7mb 58f 56f
4:06pm 8 9 mph 1023.5mb 58f 56f
4:00pm 8 13 mph 1023.4mb 58f 56f
3:54pm 8 10 mph 1023.4mb 58f 57f
3:48pm 8 10 mph 1023.3mb 58f 57f
3:36pm 10
mph
1023.2mb 58f 56f
3:30pm 10 11 mph 1023.1mb 58f 56f
3:24pm 10 11 mph 1023.1mb 58f 57f
3:18pm 11 13 mph 1023.1mb 58f 57f
3:12pm 11 13 mph 1023.1mb 58f 57f
3:06pm 10 13 mph 1023.1mb 58f 57f
3:00pm 11 14 mph 1023mb 58f 57f
2:54pm 11 13 mph 1023mb 58f 56f
2:48pm 14 17 mph 1022.9mb 58f 56f
2:36pm 17 21 mph 1022.7mb 58f 55f
2:30pm 18 22 mph 1022.7mb 58f 55f
2:24pm 17 24 mph 1022.6mb 58f 55f
2:18pm 15 17 mph 1022.6mb 58f 57f
2:12pm 13 15 mph 1022.5mb 58f 57f
2:06pm 13 14 mph 1022.5mb 58f 58f
2:00pm 11 14 mph 1022.5mb 58f 58f
1:54pm 10 13 mph 1022.2mb 58f 59f
1:48pm 10 11 mph 1022.2mb 58f 59f
1:36pm 9 11 mph 1022.1mb 58f 59f
1:30pm 10 11 mph 1022.2mb 58f 59f
1:24pm 9 10 mph 1021.9mb 58f 58f
1:18pm 8 9 mph 1021.7mb 58f 59f
1:12pm 9 10 mph 1021.5mb 58f 58f
1:06pm 9 10 mph 1021.4mb 58f 59f
1:00pm 8 9 mph 1021.4mb 58f 59f
12:54pm 9 10 mph 1021.1mb 57f 59f
12:48pm 9 11 mph 1021.5mb 57f 59f
12:36pm 10 11 mph 1021.1mb 57f 59f
12:30pm 10 13 mph 1021mb 57f 59f
12:24pm 10 11 mph 1021mb 57f 59f
12:18pm 11
mph
1021mb 57f 59f
12:12pm 10 13 mph 1020.9mb 58f 59f
12:06pm 11 13 mph 1020.9mb 57f 58f
12:00pm 10 13 mph 1020.9mb 57f 59f
11:54am 13 14 mph 1021mb 57f 58f
11:48am 11 14 mph 1021mb 57f 59f
11:36am 13 14 mph 1021mb 57f 58f
11:30am 13 14 mph 1021mb 57f 59f
11:24am 13 15 mph 1021.2mb 57f 59f
11:18am 14 15 mph 1020.9mb 57f 58f
11:12am 14 16 mph 1020.9mb 57f 57f
11:06am 15 17 mph 1020.8mb 57f 56f
11:00am 14 22 mph 1020.8mb 57f 54f
10:54am 23 28 mph 1020.9mb 57f 55f
10:48am 17 20 mph 1020.8mb 57f 58f
10:36am 14 15 mph 1020.2mb 57f 58f
10:30am 14 16 mph 1020.3mb 57f 58f
10:24am 13 15 mph 1020.2mb 57f 58f
10:18am 15 16 mph 1020.2mb 57f 58f
10:12am 15 16 mph - - 58f
10:06am 15 17 mph 1019.9mb 57f 58f
10:00am 14 16 mph 1019.7mb 57f 58f
9:54am 15 16 mph 1019.7mb 57f 58f
9:48am 14 16 mph 1019.5mb 57f 58f
9:36am 14 16 mph 1019.4mb 57f 58f
9:30am 14 17 mph 1019.3mb 57f 58f
9:24am 15 17 mph 1019.1mb 57f 58f
9:18am 16 18 mph 1019.2mb 57f 58f
9:12am 16 18 mph 1019.2mb 57f 58f
9:06am 16 18 mph 1019.2mb 57f 58f
9:00am 16 20 mph 1019.1mb 57f 58f
8:54am 17 20 mph 1018.9mb 57f 58f
8:48am 16 18 mph 1018.7mb 57f 58f
8:36am 15 16 mph 1018.3mb 57f 58f
8:30am 15 18 mph 1018.1mb 57f 58f
8:24am 14 17 mph 1018mb 57f 58f
8:18am 11 13 mph 1017.8mb 57f 58f
8:12am 11 13 mph 1017.6mb 57f 58f
8:06am 11 14 mph 1017.6mb 57f 57f
8:00am 13 14 mph 1017.4mb 57f 57f
7:54am 14 16 mph 1017.4mb 57f 56f
7:48am 15 17 mph 1017.1mb 57f 56f
7:36am 17 20 mph 1016.8mb 57f 56f
7:30am 17 18 mph 1016.6mb 57f 56f
7:24am 18 21 mph 1016.6mb 57f 56f
7:18am 17 22 mph 1016.4mb 57f 58f
7:12am 21 23 mph 1016.3mb 57f 58f
7:06am 20 23 mph 1016.2mb 57f 58f
7:00am 21 23 mph 1015.9mb 57f 58f
6:54am 17 21 mph 1015.9mb 57f 58f
6:48am 15 17 mph 1015.7mb 57f 58f
6:36am 14 16 mph 1015.5mb 57f 58f
6:30am 13 16 mph 1015.4mb 57f 58f
6:24am 13 15 mph 1015.5mb 57f 58f
6:18am 13 15 mph 1015.4mb 57f 58f
6:12am 10 14 mph 1015.1mb 57f 58f
6:06am 10 13 mph 1015mb 57f 58f
6:00am 10 13 mph 1014.9mb 57f 58f
5:54am 10 13 mph 1014.9mb 57f 58f
5:48am 9 14 mph 1014.9mb 57f 58f
5:36am 13 14 mph 1014.8mb 57f 58f
5:30am 11 13 mph 1014.7mb 57f 58f
5:24am 11 13 mph 1014.6mb 57f 58f
5:18am 11 13 mph 1014.6mb 57f 58f
5:12am 10 11 mph 1014.6mb 57f 58f
5:06am 10 13 mph 1014.8mb 57f 58f
5:00am 10 13 mph 1015mb 57f 58f
4:54am 9 11 mph 1015mb 57f 58f
4:48am 8 11 mph 1015mb 57f 58f
4:36am 8 13 mph 1015mb 57f 58f
4:30am 10 14 mph 1015mb 57f 58f
4:24am 10 15 mph 1014.9mb 57f 58f
4:18am 11 15 mph 1014.8mb 57f 58f
4:12am 13 15 mph 1014.7mb 57f 58f
4:06am 11 14 mph 1014.8mb 57f 58f
4:00am 8 10 mph 1014.8mb 57f 58f
3:54am 8 11 mph 1014.7mb 57f 58f
3:48am 10 13 mph 1014.6mb 57f 58f
3:36am 11 13 mph 1014.4mb 57f 58f
3:30am 13 14 mph 1014.4mb 57f 58f
3:24am 11 14 mph 1014.5mb 57f 58f
3:18am 13 14 mph 1014.5mb 57f 58f
3:12am 13 14 mph 1014.5mb 57f 58f
3:06am 11 14 mph 1014.5mb 57f 58f
3:00am 11 14 mph 1014.4mb 57f 58f
2:54am 11 14 mph 1014.4mb 57f 58f
2:48am 11 14 mph 1014.2mb 57f 58f
2:36am 11 14 mph 1014.2mb 57f 58f
2:30am 11 14 mph 1014.2mb 57f 58f
2:24am 11 14 mph 1014.2mb 57f 58f
2:18am 9 13 mph 1014.2mb 57f 58f
2:12am 10 14 mph 1014mb 57f 58f
2:06am 13 16 mph 1014.1mb 57f 58f
2:00am 14 16 mph 1013.9mb 57f 58f
1:54am 15 18 mph 1013.8mb 57f 59f
1:48am 16 18 mph 1013.7mb 57f 59f
1:36am 18 20 mph 1013.4mb 57f 58f
1:30am 18 22 mph 1013.3mb 57f 59f
1:24am 20 22 mph 1013.3mb 57f 59f
1:18am 21 24 mph 1013.3mb 57f 59f
1:12am 18 26 mph 1013.3mb 57f 60f
1:06am 21 25 mph 1013.3mb 57f 60f
1:00am 16 23 mph 1013.2mb 57f 59f
12:54am 16 24 mph 1013.1mb 57f 59f
12:48am 20 25 mph 1013.2mb 57f 60f
12:36am 20 28 mph 1012.9mb 57f 59f
12:30am 18 25 mph 1013mb 57f 59f
12:24am 23 28 mph 1013mb 57f 59f
12:18am 28 31 mph 1012.9mb 57f 59f
12:12am 25 33 mph 1012.9mb 57f 59f
12:06am 21 28 mph 1013mb 57f 58f
12:00am 24 28 mph 1012.9mb 57f 58f
Fri 11/21 11:54pm 24 31 mph 1012.5mb 57f 58f
11:48pm 22 25 mph 1012.5mb 57f 58f
11:36pm 18 22 mph 1012.5mb 57f 58f
11:30pm 17 22 mph 1012.3mb 57f 57f
11:24pm 21 23 mph 1012.4mb 57f 57f
11:18pm 21 25 mph 1012.5mb 57f 57f
11:12pm 22 26 mph 1012.5mb 57f 57f
11:06pm 22 25 mph 1012.6mb 57f 57f
11:00pm 22 26 mph 1012.5mb 57f 57f
10:54pm 23 28 mph 1012.6mb 57f 57f
10:48pm 23 28 mph 1012.6mb 57f 57f